sensor_id;sensor_type;location;lat;lon;timestamp;temperature;humidity
23568;DHT22;11962;50.838;4.430;2023-03-01T00:02:21;3.10;82.80
23568;DHT22;11962;50.838;4.430;2023-03-01T00:04:46;3.10;82.90
23568;DHT22;11962;50.838;4.430;2023-03-01T00:07:12;3.10;83.00
23568;DHT22;11962;50.838;4.430;2023-03-01T00:09:38;3.10;83.00
23568;DHT22;11962;50.838;4.430;2023-03-01T00:12:05;3.00;83.20
23568;DHT22;11962;50.838;4.430;2023-03-01T00:14:31;3.00;83.30
23568;DHT22;11962;50.838;4.430;2023-03-01T00:16:57;3.00;83.50
23568;DHT22;11962;50.838;4.430;2023-03-01T00:19:22;3.00;83.70
23568;DHT22;11962;50.838;4.430;2023-03-01T00:21:48;2.90;83.90
23568;DHT22;11962;50.838;4.430;2023-03-01T00:24:15;2.90;84.10
23568;DHT22;11962;50.838;4.430;2023-03-01T00:26:40;2.90;84.20
23568;DHT22;11962;50.838;4.430;2023-03-01T00:29:06;2.90;84.30
23568;DHT22;11962;50.838;4.430;2023-03-01T00:31:33;2.90;84.30
23568;DHT22;11962;50.838;4.430;2023-03-01T00:34:03;2.90;84.50
23568;DHT22;11962;50.838;4.430;2023-03-01T00:36:32;2.80;84.70
23568;DHT22;11962;50.838;4.430;2023-03-01T00:38:58;2.80;84.80
23568;DHT22;11962;50.838;4.430;2023-03-01T00:41:23;2.80;85.00
23568;DHT22;11962;50.838;4.430;2023-03-01T00:43:52;2.80;85.10
23568;DHT22;11962;50.838;4.430;2023-03-01T00:46:21;2.80;85.20
23568;DHT22;11962;50.838;4.430;2023-03-01T00:48:48;2.80;85.30
23568;DHT22;11962;50.838;4.430;2023-03-01T00:51:20;2.80;85.40
23568;DHT22;11962;50.838;4.430;2023-03-01T00:53:47;2.70;85.40
23568;DHT22;11962;50.838;4.430;2023-03-01T00:56:14;2.70;85.50
23568;DHT22;11962;50.838;4.430;2023-03-01T00:58:41;2.70;85.70
23568;DHT22;11962;50.838;4.430;2023-03-01T01:01:11;2.70;85.80
23568;DHT22;11962;50.838;4.430;2023-03-01T01:03:50;2.70;86.10
23568;DHT22;11962;50.838;4.430;2023-03-01T01:06:36;2.70;86.20
23568;DHT22;11962;50.838;4.430;2023-03-01T01:09:04;2.60;86.30
23568;DHT22;11962;50.838;4.430;2023-03-01T01:11:31;2.60;86.60
23568;DHT22;11962;50.838;4.430;2023-03-01T01:13:57;2.60;86.60
23568;DHT22;11962;50.838;4.430;2023-03-01T01:16:24;2.60;86.80
23568;DHT22;11962;50.838;4.430;2023-03-01T01:18:51;2.60;87.00
23568;DHT22;11962;50.838;4.430;2023-03-01T01:21:19;2.50;87.10
23568;DHT22;11962;50.838;4.430;2023-03-01T01:23:46;2.50;87.20
23568;DHT22;11962;50.838;4.430;2023-03-01T01:26:19;2.50;87.40
23568;DHT22;11962;50.838;4.430;2023-03-01T01:28:45;2.50;87.50
23568;DHT22;11962;50.838;4.430;2023-03-01T01:31:11;2.50;87.60
23568;DHT22;11962;50.838;4.430;2023-03-01T01:33:38;2.50;87.80
23568;DHT22;11962;50.838;4.430;2023-03-01T01:36:07;2.40;87.90
23568;DHT22;11962;50.838;4.430;2023-03-01T01:38:34;2.40;88.00
23568;DHT22;11962;50.838;4.430;2023-03-01T01:41:00;2.40;88.10
23568;DHT22;11962;50.838;4.430;2023-03-01T01:43:47;2.40;88.30
23568;DHT22;11962;50.838;4.430;2023-03-01T01:46:30;2.40;88.40
23568;DHT22;11962;50.838;4.430;2023-03-01T01:49:03;2.30;88.50
23568;DHT22;11962;50.838;4.430;2023-03-01T01:51:41;2.30;88.50
23568;DHT22;11962;50.838;4.430;2023-03-01T01:54:16;2.30;88.80
23568;DHT22;11962;50.838;4.430;2023-03-01T01:56:48;2.30;88.90
23568;DHT22;11962;50.838;4.430;2023-03-01T01:59:15;2.30;88.90
23568;DHT22;11962;50.838;4.430;2023-03-01T02:01:41;2.30;89.00
23568;DHT22;11962;50.838;4.430;2023-03-01T02:04:07;2.20;89.10
23568;DHT22;11962;50.838;4.430;2023-03-01T02:06:39;2.20;89.10
23568;DHT22;11962;50.838;4.430;2023-03-01T02:09:12;2.20;89.30
23568;DHT22;11962;50.838;4.430;2023-03-01T02:11:38;2.20;89.30
23568;DHT22;11962;50.838;4.430;2023-03-01T02:14:05;2.20;89.50
23568;DHT22;11962;50.838;4.430;2023-03-01T02:16:31;2.20;89.70
23568;DHT22;11962;50.838;4.430;2023-03-01T02:18:58;2.10;89.80
23568;DHT22;11962;50.838;4.430;2023-03-01T02:23:56;2.10;90.00
23568;DHT22;11962;50.838;4.430;2023-03-01T02:26:40;2.10;90.00
23568;DHT22;11962;50.838;4.430;2023-03-01T02:29:07;2.10;90.10
23568;DHT22;11962;50.838;4.430;2023-03-01T02:31:33;2.00;90.20
23568;DHT22;11962;50.838;4.430;2023-03-01T02:34:17;2.00;90.20
23568;DHT22;11962;50.838;4.430;2023-03-01T02:36:52;2.00;90.30
23568;DHT22;11962;50.838;4.430;2023-03-01T02:39:31;2.00;90.30
23568;DHT22;11962;50.838;4.430;2023-03-01T02:41:58;2.00;90.40
23568;DHT22;11962;50.838;4.430;2023-03-01T02:44:25;1.90;90.40
23568;DHT22;11962;50.838;4.430;2023-03-01T02:46:53;1.90;90.50
23568;DHT22;11962;50.838;4.430;2023-03-01T02:49:21;1.90;90.50
23568;DHT22;11962;50.838;4.430;2023-03-01T02:57:05;1.90;90.60
23568;DHT22;11962;50.838;4.430;2023-03-01T02:59:35;1.90;90.70
23568;DHT22;11962;50.838;4.430;2023-03-01T03:02:18;1.80;90.70
23568;DHT22;11962;50.838;4.430;2023-03-01T03:04:45;1.80;90.70
23568;DHT22;11962;50.838;4.430;2023-03-01T03:07:11;1.80;90.80
23568;DHT22;11962;50.838;4.430;2023-03-01T03:09:37;1.80;90.80
23568;DHT22;11962;50.838;4.430;2023-03-01T03:12:03;1.80;90.80
23568;DHT22;11962;50.838;4.430;2023-03-01T03:14:28;1.80;90.90
23568;DHT22;11962;50.838;4.430;2023-03-01T03:16:54;1.80;90.90
23568;DHT22;11962;50.838;4.430;2023-03-01T03:19:20;1.70;91.00
23568;DHT22;11962;50.838;4.430;2023-03-01T03:21:46;1.70;91.10
23568;DHT22;11962;50.838;4.430;2023-03-01T03:24:12;1.70;91.40
23568;DHT22;11962;50.838;4.430;2023-03-01T03:26:38;1.60;91.40
23568;DHT22;11962;50.838;4.430;2023-03-01T03:29:03;1.60;91.50
23568;DHT22;11962;50.838;4.430;2023-03-01T03:31:29;1.60;91.60
23568;DHT22;11962;50.838;4.430;2023-03-01T03:33:55;1.60;91.70
23568;DHT22;11962;50.838;4.430;2023-03-01T03:36:24;1.60;91.70
23568;DHT22;11962;50.838;4.430;2023-03-01T03:38:50;1.60;91.90
23568;DHT22;11962;50.838;4.430;2023-03-01T03:41:16;1.60;91.80
23568;DHT22;11962;50.838;4.430;2023-03-01T03:43:42;1.50;91.80
23568;DHT22;11962;50.838;4.430;2023-03-01T03:46:09;1.50;91.90
23568;DHT22;11962;50.838;4.430;2023-03-01T03:48:41;1.50;92.00
23568;DHT22;11962;50.838;4.430;2023-03-01T03:51:10;1.50;92.10
23568;DHT22;11962;50.838;4.430;2023-03-01T03:53:36;1.50;92.10
23568;DHT22;11962;50.838;4.430;2023-03-01T03:56:01;1.50;92.10
23568;DHT22;11962;50.838;4.430;2023-03-01T03:58:27;1.50;92.20
23568;DHT22;11962;50.838;4.430;2023-03-01T04:00:55;1.50;92.30
23568;DHT22;11962;50.838;4.430;2023-03-01T04:03:22;1.40;92.40
23568;DHT22;11962;50.838;4.430;2023-03-01T04:05:48;1.40;92.40
23568;DHT22;11962;50.838;4.430;2023-03-01T04:08:16;1.40;92.50
23568;DHT22;11962;50.838;4.430;2023-03-01T04:10:46;1.40;92.50
23568;DHT22;11962;50.838;4.430;2023-03-01T04:13:17;1.40;92.50
23568;DHT22;11962;50.838;4.430;2023-03-01T04:15:46;1.40;92.50
23568;DHT22;11962;50.838;4.430;2023-03-01T04:18:13;1.30;92.60
23568;DHT22;11962;50.838;4.430;2023-03-01T04:20:39;1.30;92.60
23568;DHT22;11962;50.838;4.430;2023-03-01T04:23:11;1.30;92.60
23568;DHT22;11962;50.838;4.430;2023-03-01T04:25:55;1.30;92.70
23568;DHT22;11962;50.838;4.430;2023-03-01T04:30:57;1.30;92.80
23568;DHT22;11962;50.838;4.430;2023-03-01T04:33:24;1.30;92.80
23568;DHT22;11962;50.838;4.430;2023-03-01T04:35:51;1.20;92.80
23568;DHT22;11962;50.838;4.430;2023-03-01T04:38:18;1.20;92.90
23568;DHT22;11962;50.838;4.430;2023-03-01T04:40:44;1.30;92.90
23568;DHT22;11962;50.838;4.430;2023-03-01T04:43:11;1.30;93.00
23568;DHT22;11962;50.838;4.430;2023-03-01T04:45:39;1.30;93.00
23568;DHT22;11962;50.838;4.430;2023-03-01T04:48:06;1.30;93.00
23568;DHT22;11962;50.838;4.430;2023-03-01T04:50:32;1.30;93.00
23568;DHT22;11962;50.838;4.430;2023-03-01T04:52:58;1.30;93.00
23568;DHT22;11962;50.838;4.430;2023-03-01T04:55:28;1.30;93.00
23568;DHT22;11962;50.838;4.430;2023-03-01T04:57:54;1.30;93.10
23568;DHT22;11962;50.838;4.430;2023-03-01T05:00:21;1.30;93.10
23568;DHT22;11962;50.838;4.430;2023-03-01T05:02:57;1.30;93.20
23568;DHT22;11962;50.838;4.430;2023-03-01T05:05:35;1.30;93.20
23568;DHT22;11962;50.838;4.430;2023-03-01T05:08:05;1.30;93.20
23568;DHT22;11962;50.838;4.430;2023-03-01T05:10:33;1.30;93.30
23568;DHT22;11962;50.838;4.430;2023-03-01T05:13:00;1.30;93.20
23568;DHT22;11962;50.838;4.430;2023-03-01T05:15:29;1.30;93.30
23568;DHT22;11962;50.838;4.430;2023-03-01T05:17:56;1.30;93.30
23568;DHT22;11962;50.838;4.430;2023-03-01T05:20:24;1.30;93.30
23568;DHT22;11962;50.838;4.430;2023-03-01T05:22:51;1.30;93.40
23568;DHT22;11962;50.838;4.430;2023-03-01T05:25:17;1.30;93.30
23568;DHT22;11962;50.838;4.430;2023-03-01T05:27:43;1.30;93.40
23568;DHT22;11962;50.838;4.430;2023-03-01T05:30:09;1.30;93.40
23568;DHT22;11962;50.838;4.430;2023-03-01T05:32:50;1.30;93.50
23568;DHT22;11962;50.838;4.430;2023-03-01T05:35:21;1.30;93.50
23568;DHT22;11962;50.838;4.430;2023-03-01T05:37:49;1.30;93.60
23568;DHT22;11962;50.838;4.430;2023-03-01T05:40:20;1.30;93.60
23568;DHT22;11962;50.838;4.430;2023-03-01T05:42:52;1.30;93.60
23568;DHT22;11962;50.838;4.430;2023-03-01T05:45:19;1.30;93.70
23568;DHT22;11962;50.838;4.430;2023-03-01T05:47:47;1.30;93.70
23568;DHT22;11962;50.838;4.430;2023-03-01T05:50:16;1.30;93.70
23568;DHT22;11962;50.838;4.430;2023-03-01T05:52:56;1.30;93.70
23568;DHT22;11962;50.838;4.430;2023-03-01T05:55:22;1.30;93.80
23568;DHT22;11962;50.838;4.430;2023-03-01T05:57:48;1.30;93.80
23568;DHT22;11962;50.838;4.430;2023-03-01T06:00:17;1.30;93.90
23568;DHT22;11962;50.838;4.430;2023-03-01T06:02:43;1.30;93.90
23568;DHT22;11962;50.838;4.430;2023-03-01T06:05:10;1.30;93.90
23568;DHT22;11962;50.838;4.430;2023-03-01T06:07:36;1.30;94.00
23568;DHT22;11962;50.838;4.430;2023-03-01T06:10:03;1.20;94.00
23568;DHT22;11962;50.838;4.430;2023-03-01T06:12:33;1.20;94.00
23568;DHT22;11962;50.838;4.430;2023-03-01T06:15:00;1.20;94.10
23568;DHT22;11962;50.838;4.430;2023-03-01T06:17:26;1.30;94.10
23568;DHT22;11962;50.838;4.430;2023-03-01T06:19:54;1.20;94.20
23568;DHT22;11962;50.838;4.430;2023-03-01T06:22:20;1.20;94.20
23568;DHT22;11962;50.838;4.430;2023-03-01T06:24:45;1.20;94.20
23568;DHT22;11962;50.838;4.430;2023-03-01T06:27:11;1.20;94.20
23568;DHT22;11962;50.838;4.430;2023-03-01T06:29:37;1.20;94.30
23568;DHT22;11962;50.838;4.430;2023-03-01T06:32:03;1.20;94.30
23568;DHT22;11962;50.838;4.430;2023-03-01T06:34:34;1.20;94.40
23568;DHT22;11962;50.838;4.430;2023-03-01T06:37:00;1.20;94.40
23568;DHT22;11962;50.838;4.430;2023-03-01T06:39:28;1.20;94.40
23568;DHT22;11962;50.838;4.430;2023-03-01T06:41:54;1.20;94.40
23568;DHT22;11962;50.838;4.430;2023-03-01T06:44:19;1.30;94.40
23568;DHT22;11962;50.838;4.430;2023-03-01T06:46:45;1.30;94.40
23568;DHT22;11962;50.838;4.430;2023-03-01T06:49:11;1.30;94.40
23568;DHT22;11962;50.838;4.430;2023-03-01T06:51:37;1.30;94.40
23568;DHT22;11962;50.838;4.430;2023-03-01T06:54:04;1.30;94.50
23568;DHT22;11962;50.838;4.430;2023-03-01T06:56:31;1.40;94.50
23568;DHT22;11962;50.838;4.430;2023-03-01T06:58:57;1.40;94.50
23568;DHT22;11962;50.838;4.430;2023-03-01T07:01:22;1.50;94.50
23568;DHT22;11962;50.838;4.430;2023-03-01T07:04:03;1.50;94.40
23568;DHT22;11962;50.838;4.430;2023-03-01T07:06:29;1.60;94.40
23568;DHT22;11962;50.838;4.430;2023-03-01T07:08:55;1.60;94.30
23568;DHT22;11962;50.838;4.430;2023-03-01T07:11:22;1.60;94.30
23568;DHT22;11962;50.838;4.430;2023-03-01T07:13:48;1.60;94.30
23568;DHT22;11962;50.838;4.430;2023-03-01T07:16:14;1.70;94.30
23568;DHT22;11962;50.838;4.430;2023-03-01T07:18:40;1.80;94.40
23568;DHT22;11962;50.838;4.430;2023-03-01T07:21:07;1.80;94.30
23568;DHT22;11962;50.838;4.430;2023-03-01T07:23:34;1.80;94.20
23568;DHT22;11962;50.838;4.430;2023-03-01T07:25:59;1.90;94.20
23568;DHT22;11962;50.838;4.430;2023-03-01T07:28:26;1.90;94.10
23568;DHT22;11962;50.838;4.430;2023-03-01T07:30:53;1.90;94.20
23568;DHT22;11962;50.838;4.430;2023-03-01T07:33:19;2.00;94.10
23568;DHT22;11962;50.838;4.430;2023-03-01T07:35:44;2.00;94.00
23568;DHT22;11962;50.838;4.430;2023-03-01T07:38:10;2.10;94.00
23568;DHT22;11962;50.838;4.430;2023-03-01T07:40:36;2.10;94.00
23568;DHT22;11962;50.838;4.430;2023-03-01T07:43:02;2.20;93.90
23568;DHT22;11962;50.838;4.430;2023-03-01T07:45:28;2.20;93.80
23568;DHT22;11962;50.838;4.430;2023-03-01T07:47:55;2.30;93.80
23568;DHT22;11962;50.838;4.430;2023-03-01T07:50:22;2.30;93.80
23568;DHT22;11962;50.838;4.430;2023-03-01T07:52:49;2.30;93.70
23568;DHT22;11962;50.838;4.430;2023-03-01T07:55:16;2.30;93.60
23568;DHT22;11962;50.838;4.430;2023-03-01T07:57:42;2.40;93.70
23568;DHT22;11962;50.838;4.430;2023-03-01T08:00:10;2.40;93.60
23568;DHT22;11962;50.838;4.430;2023-03-01T08:02:36;2.50;93.60
23568;DHT22;11962;50.838;4.430;2023-03-01T08:05:02;2.60;93.50
23568;DHT22;11962;50.838;4.430;2023-03-01T08:07:28;2.60;93.40
23568;DHT22;11962;50.838;4.430;2023-03-01T08:09:54;2.70;93.40
23568;DHT22;11962;50.838;4.430;2023-03-01T08:12:20;2.70;93.40
23568;DHT22;11962;50.838;4.430;2023-03-01T08:14:45;2.80;93.40
23568;DHT22;11962;50.838;4.430;2023-03-01T08:17:14;2.80;93.30
23568;DHT22;11962;50.838;4.430;2023-03-01T08:20:08;2.90;93.20
23568;DHT22;11962;50.838;4.430;2023-03-01T08:22:34;3.00;93.00
23568;DHT22;11962;50.838;4.430;2023-03-01T08:25:00;3.00;92.90
23568;DHT22;11962;50.838;4.430;2023-03-01T08:27:26;3.10;92.90
23568;DHT22;11962;50.838;4.430;2023-03-01T08:29:51;3.20;92.80
23568;DHT22;11962;50.838;4.430;2023-03-01T08:32:17;3.30;92.80
23568;DHT22;11962;50.838;4.430;2023-03-01T08:34:46;3.40;92.60
23568;DHT22;11962;50.838;4.430;2023-03-01T08:37:12;3.50;92.50
23568;DHT22;11962;50.838;4.430;2023-03-01T08:39:38;3.60;92.30
23568;DHT22;11962;50.838;4.430;2023-03-01T08:42:03;4.10;92.10
23568;DHT22;11962;50.838;4.430;2023-03-01T08:44:29;5.70;90.70
23568;DHT22;11962;50.838;4.430;2023-03-01T08:46:55;8.30;86.50
23568;DHT22;11962;50.838;4.430;2023-03-01T08:49:21;11.20;77.30
23568;DHT22;11962;50.838;4.430;2023-03-01T08:51:47;14.00;68.70
23568;DHT22;11962;50.838;4.430;2023-03-01T08:54:15;15.80;60.60
23568;DHT22;11962;50.838;4.430;2023-03-01T08:56:42;17.40;56.20
23568;DHT22;11962;50.838;4.430;2023-03-01T08:59:08;18.60;52.60
23568;DHT22;11962;50.838;4.430;2023-03-01T09:01:34;19.50;49.50
23568;DHT22;11962;50.838;4.430;2023-03-01T09:04:00;20.10;47.10
23568;DHT22;11962;50.838;4.430;2023-03-01T09:06:26;20.70;45.70
23568;DHT22;11962;50.838;4.430;2023-03-01T09:08:52;21.50;44.60
23568;DHT22;11962;50.838;4.430;2023-03-01T09:11:20;22.40;43.20
23568;DHT22;11962;50.838;4.430;2023-03-01T09:13:47;23.50;41.70
23568;DHT22;11962;50.838;4.430;2023-03-01T09:16:16;24.40;39.80
23568;DHT22;11962;50.838;4.430;2023-03-01T09:18:43;24.80;38.80
23568;DHT22;11962;50.838;4.430;2023-03-01T09:21:14;25.40;38.00
23568;DHT22;11962;50.838;4.430;2023-03-01T09:23:43;26.00;37.00
23568;DHT22;11962;50.838;4.430;2023-03-01T09:26:12;26.20;36.10
23568;DHT22;11962;50.838;4.430;2023-03-01T09:28:38;26.40;35.10
23568;DHT22;11962;50.838;4.430;2023-03-01T09:31:06;26.40;34.80
23568;DHT22;11962;50.838;4.430;2023-03-01T09:33:32;26.10;34.60
23568;DHT22;11962;50.838;4.430;2023-03-01T09:36:06;26.30;34.80
23568;DHT22;11962;50.838;4.430;2023-03-01T09:38:32;26.70;34.20
23568;DHT22;11962;50.838;4.430;2023-03-01T09:40:59;26.80;33.30
23568;DHT22;11962;50.838;4.430;2023-03-01T09:46:02;26.80;32.80
23568;DHT22;11962;50.838;4.430;2023-03-01T09:48:33;26.60;33.00
23568;DHT22;11962;50.838;4.430;2023-03-01T09:51:02;26.40;32.80
23568;DHT22;11962;50.838;4.430;2023-03-01T09:53:33;26.80;33.10
23568;DHT22;11962;50.838;4.430;2023-03-01T09:58:48;27.10;32.40
23568;DHT22;11962;50.838;4.430;2023-03-01T10:09:41;25.10;33.20
23568;DHT22;11962;50.838;4.430;2023-03-01T10:12:19;25.50;33.30
23568;DHT22;11962;50.838;4.430;2023-03-01T10:15:14;26.00;32.60
23568;DHT22;11962;50.838;4.430;2023-03-01T10:17:55;26.30;32.40
23568;DHT22;11962;50.838;4.430;2023-03-01T10:20:33;26.70;32.10
23568;DHT22;11962;50.838;4.430;2023-03-01T10:23:03;27.00;31.90
23568;DHT22;11962;50.838;4.430;2023-03-01T10:28:01;26.70;31.10
23568;DHT22;11962;50.838;4.430;2023-03-01T10:30:38;26.20;31.30
23568;DHT22;11962;50.838;4.430;2023-03-01T10:33:26;25.70;31.60
23568;DHT22;11962;50.838;4.430;2023-03-01T10:35:53;26.10;31.90
23568;DHT22;11962;50.838;4.430;2023-03-01T10:38:20;25.70;31.40
23568;DHT22;11962;50.838;4.430;2023-03-01T10:41:05;25.90;31.60
23568;DHT22;11962;50.838;4.430;2023-03-01T10:43:53;26.00;31.80
23568;DHT22;11962;50.838;4.430;2023-03-01T10:46:33;26.30;31.50
23568;DHT22;11962;50.838;4.430;2023-03-01T10:51:45;26.80;31.10
23568;DHT22;11962;50.838;4.430;2023-03-01T10:54:38;26.20;30.80
23568;DHT22;11962;50.838;4.430;2023-03-01T10:57:05;26.00;31.30
23568;DHT22;11962;50.838;4.430;2023-03-01T10:59:32;25.60;31.20
23568;DHT22;11962;50.838;4.430;2023-03-01T11:02:30;25.40;31.70
23568;DHT22;11962;50.838;4.430;2023-03-01T11:05:00;25.40;31.60
23568;DHT22;11962;50.838;4.430;2023-03-01T11:07:26;25.20;31.30
23568;DHT22;11962;50.838;4.430;2023-03-01T11:09:52;24.80;31.70
23568;DHT22;11962;50.838;4.430;2023-03-01T11:12:20;24.70;32.30
23568;DHT22;11962;50.838;4.430;2023-03-01T11:14:54;25.10;32.10
23568;DHT22;11962;50.838;4.430;2023-03-01T11:17:25;24.90;31.70
23568;DHT22;11962;50.838;4.430;2023-03-01T11:20:25;24.50;31.90
23568;DHT22;11962;50.838;4.430;2023-03-01T11:22:58;24.20;32.20
23568;DHT22;11962;50.838;4.430;2023-03-01T11:25:39;24.40;32.00
23568;DHT22;11962;50.838;4.430;2023-03-01T11:28:09;24.80;32.30
23568;DHT22;11962;50.838;4.430;2023-03-01T11:38:34;23.70;32.20
23568;DHT22;11962;50.838;4.430;2023-03-01T11:41:23;23.30;33.10
23568;DHT22;11962;50.838;4.430;2023-03-01T11:44:23;22.70;33.60
23568;DHT22;11962;50.838;4.430;2023-03-01T11:50:19;22.10;34.80
23568;DHT22;11962;50.838;4.430;2023-03-01T12:14:28;17.50;39.50
23568;DHT22;11962;50.838;4.430;2023-03-01T12:25:48;15.40;43.30
23568;DHT22;11962;50.838;4.430;2023-03-01T12:39:28;13.60;45.90
23568;DHT22;11962;50.838;4.430;2023-03-01T12:50:26;12.60;49.20
23568;DHT22;11962;50.838;4.430;2023-03-01T12:52:56;12.40;48.90
23568;DHT22;11962;50.838;4.430;2023-03-01T12:58:00;12.20;49.60
23568;DHT22;11962;50.838;4.430;2023-03-01T13:00:32;11.90;49.70
23568;DHT22;11962;50.838;4.430;2023-03-01T13:06:02;11.70;50.20
23568;DHT22;11962;50.838;4.430;2023-03-01T13:09:03;11.60;50.60
23568;DHT22;11962;50.838;4.430;2023-03-01T13:11:32;11.60;50.80
23568;DHT22;11962;50.838;4.430;2023-03-01T13:14:35;11.50;51.10
23568;DHT22;11962;50.838;4.430;2023-03-01T13:17:02;11.40;50.40
23568;DHT22;11962;50.838;4.430;2023-03-01T13:19:29;11.30;50.60
23568;DHT22;11962;50.838;4.430;2023-03-01T13:21:55;11.20;51.10
23568;DHT22;11962;50.838;4.430;2023-03-01T13:24:28;11.10;51.70
23568;DHT22;11962;50.838;4.430;2023-03-01T13:37:40;10.90;52.60
23568;DHT22;11962;50.838;4.430;2023-03-01T13:42:49;10.80;52.60
23568;DHT22;11962;50.838;4.430;2023-03-01T13:47:45;10.70;53.00
23568;DHT22;11962;50.838;4.430;2023-03-01T13:50:20;10.60;52.60
23568;DHT22;11962;50.838;4.430;2023-03-01T13:52:55;10.60;52.40
23568;DHT22;11962;50.838;4.430;2023-03-01T13:55:38;10.60;52.40
23568;DHT22;11962;50.838;4.430;2023-03-01T14:00:46;10.50;52.40
23568;DHT22;11962;50.838;4.430;2023-03-01T14:03:17;10.50;52.90
23568;DHT22;11962;50.838;4.430;2023-03-01T14:06:03;10.50;53.30
23568;DHT22;11962;50.838;4.430;2023-03-01T14:08:36;10.50;53.50
23568;DHT22;11962;50.838;4.430;2023-03-01T14:19:28;10.40;53.80
23568;DHT22;11962;50.838;4.430;2023-03-01T14:27:45;10.20;54.00
23568;DHT22;11962;50.838;4.430;2023-03-01T14:36:00;10.10;54.70
23568;DHT22;11962;50.838;4.430;2023-03-01T14:38:52;10.20;55.00
23568;DHT22;11962;50.838;4.430;2023-03-01T14:41:24;10.20;54.70
23568;DHT22;11962;50.838;4.430;2023-03-01T14:43:55;10.20;54.40
23568;DHT22;11962;50.838;4.430;2023-03-01T14:46:35;10.10;54.20
23568;DHT22;11962;50.838;4.430;2023-03-01T14:49:25;10.00;54.50
23568;DHT22;11962;50.838;4.430;2023-03-01T14:52:02;9.90;54.90
23568;DHT22;11962;50.838;4.430;2023-03-01T14:57:15;10.00;54.70
23568;DHT22;11962;50.838;4.430;2023-03-01T14:59:41;10.00;54.90
23568;DHT22;11962;50.838;4.430;2023-03-01T15:02:13;10.10;55.20
23568;DHT22;11962;50.838;4.430;2023-03-01T15:04:43;10.10;55.00
23568;DHT22;11962;50.838;4.430;2023-03-01T15:07:12;10.10;55.10
23568;DHT22;11962;50.838;4.430;2023-03-01T15:09:41;10.10;55.10
23568;DHT22;11962;50.838;4.430;2023-03-01T15:12:34;10.20;55.20
23568;DHT22;11962;50.838;4.430;2023-03-01T15:15:01;10.10;54.90
23568;DHT22;11962;50.838;4.430;2023-03-01T15:17:34;10.10;54.90
23568;DHT22;11962;50.838;4.430;2023-03-01T15:20:04;10.10;55.20
23568;DHT22;11962;50.838;4.430;2023-03-01T15:22:31;10.10;55.30
23568;DHT22;11962;50.838;4.430;2023-03-01T15:24:57;10.10;55.40
23568;DHT22;11962;50.838;4.430;2023-03-01T15:27:24;10.00;55.50
23568;DHT22;11962;50.838;4.430;2023-03-01T15:30:00;9.90;55.50
23568;DHT22;11962;50.838;4.430;2023-03-01T15:32:35;9.90;55.80
23568;DHT22;11962;50.838;4.430;2023-03-01T15:35:38;9.80;56.00
23568;DHT22;11962;50.838;4.430;2023-03-01T15:38:28;9.80;56.20
23568;DHT22;11962;50.838;4.430;2023-03-01T15:40:54;9.70;56.40
23568;DHT22;11962;50.838;4.430;2023-03-01T15:43:42;9.70;56.50
23568;DHT22;11962;50.838;4.430;2023-03-01T15:46:18;9.70;56.50
23568;DHT22;11962;50.838;4.430;2023-03-01T15:48:48;9.70;56.60
23568;DHT22;11962;50.838;4.430;2023-03-01T15:51:22;9.70;56.70
23568;DHT22;11962;50.838;4.430;2023-03-01T15:53:51;9.60;56.90
23568;DHT22;11962;50.838;4.430;2023-03-01T15:56:18;9.50;57.00
23568;DHT22;11962;50.838;4.430;2023-03-01T15:58:44;9.50;57.20
23568;DHT22;11962;50.838;4.430;2023-03-01T16:01:17;9.50;57.50
23568;DHT22;11962;50.838;4.430;2023-03-01T16:03:44;9.40;57.70
23568;DHT22;11962;50.838;4.430;2023-03-01T16:06:11;9.40;57.60
23568;DHT22;11962;50.838;4.430;2023-03-01T16:08:43;9.40;57.70
23568;DHT22;11962;50.838;4.430;2023-03-01T16:11:17;9.30;57.70
23568;DHT22;11962;50.838;4.430;2023-03-01T16:13:44;9.20;57.70
23568;DHT22;11962;50.838;4.430;2023-03-01T16:16:15;9.20;57.70
23568;DHT22;11962;50.838;4.430;2023-03-01T16:18:47;9.20;57.80
23568;DHT22;11962;50.838;4.430;2023-03-01T16:21:20;9.20;57.90
23568;DHT22;11962;50.838;4.430;2023-03-01T16:23:48;9.20;57.40
23568;DHT22;11962;50.838;4.430;2023-03-01T16:26:14;9.10;57.30
23568;DHT22;11962;50.838;4.430;2023-03-01T16:28:41;9.10;57.50
23568;DHT22;11962;50.838;4.430;2023-03-01T16:31:07;9.00;57.60
23568;DHT22;11962;50.838;4.430;2023-03-01T16:33:34;9.00;57.90
23568;DHT22;11962;50.838;4.430;2023-03-01T16:36:20;8.90;58.00
23568;DHT22;11962;50.838;4.430;2023-03-01T16:38:49;8.90;58.10
23568;DHT22;11962;50.838;4.430;2023-03-01T16:41:16;8.80;58.30
23568;DHT22;11962;50.838;4.430;2023-03-01T16:43:42;8.80;58.40
23568;DHT22;11962;50.838;4.430;2023-03-01T16:46:13;8.70;58.50
23568;DHT22;11962;50.838;4.430;2023-03-01T16:48:39;8.60;58.60
23568;DHT22;11962;50.838;4.430;2023-03-01T16:51:06;8.60;58.60
23568;DHT22;11962;50.838;4.430;2023-03-01T16:53:35;8.60;58.70
23568;DHT22;11962;50.838;4.430;2023-03-01T16:56:09;8.50;58.70
23568;DHT22;11962;50.838;4.430;2023-03-01T16:58:36;8.50;58.90
23568;DHT22;11962;50.838;4.430;2023-03-01T17:01:13;8.40;59.00
23568;DHT22;11962;50.838;4.430;2023-03-01T17:03:40;8.40;59.20
23568;DHT22;11962;50.838;4.430;2023-03-01T17:06:12;8.30;59.60
23568;DHT22;11962;50.838;4.430;2023-03-01T17:08:38;8.20;59.80
23568;DHT22;11962;50.838;4.430;2023-03-01T17:11:23;8.20;60.10
23568;DHT22;11962;50.838;4.430;2023-03-01T17:13:48;8.20;60.40
23568;DHT22;11962;50.838;4.430;2023-03-01T17:16:17;8.10;60.50
23568;DHT22;11962;50.838;4.430;2023-03-01T17:18:43;8.10;60.50
23568;DHT22;11962;50.838;4.430;2023-03-01T17:21:10;8.10;61.10
23568;DHT22;11962;50.838;4.430;2023-03-01T17:23:38;8.10;61.30
23568;DHT22;11962;50.838;4.430;2023-03-01T17:26:04;8.00;62.30
23568;DHT22;11962;50.838;4.430;2023-03-01T17:28:31;8.00;61.80
23568;DHT22;11962;50.838;4.430;2023-03-01T17:30:59;7.90;62.00
23568;DHT22;11962;50.838;4.430;2023-03-01T17:33:25;7.90;62.50
23568;DHT22;11962;50.838;4.430;2023-03-01T17:35:51;7.90;63.10
23568;DHT22;11962;50.838;4.430;2023-03-01T17:38:17;7.80;63.30
23568;DHT22;11962;50.838;4.430;2023-03-01T17:40:44;7.80;63.70
23568;DHT22;11962;50.838;4.430;2023-03-01T17:43:14;7.80;64.10
23568;DHT22;11962;50.838;4.430;2023-03-01T17:45:40;7.70;64.50
23568;DHT22;11962;50.838;4.430;2023-03-01T17:48:09;7.70;65.00
23568;DHT22;11962;50.838;4.430;2023-03-01T17:50:37;7.60;65.00
23568;DHT22;11962;50.838;4.430;2023-03-01T17:53:05;7.60;65.50
23568;DHT22;11962;50.838;4.430;2023-03-01T17:55:35;7.60;65.60
23568;DHT22;11962;50.838;4.430;2023-03-01T17:58:02;7.50;65.70
23568;DHT22;11962;50.838;4.430;2023-03-01T18:00:28;7.40;66.10
23568;DHT22;11962;50.838;4.430;2023-03-01T18:02:54;7.40;66.30
23568;DHT22;11962;50.838;4.430;2023-03-01T18:05:20;7.30;66.50
23568;DHT22;11962;50.838;4.430;2023-03-01T18:07:46;7.30;66.60
23568;DHT22;11962;50.838;4.430;2023-03-01T18:10:27;7.20;66.60
23568;DHT22;11962;50.838;4.430;2023-03-01T18:12:53;7.20;66.70
23568;DHT22;11962;50.838;4.430;2023-03-01T18:15:18;7.20;66.80
23568;DHT22;11962;50.838;4.430;2023-03-01T18:17:44;7.10;67.10